createdAt,value
2023-04-18T00:01:30.021Z,20.98
2023-04-18T00:03:57.938Z,21.30
2023-04-18T00:06:25.906Z,20.25
2023-04-18T00:08:53.064Z,19.90
2023-04-18T00:11:20.660Z,20.23
2023-04-18T00:13:47.759Z,18.67
2023-04-18T00:16:15.609Z,17.90
2023-04-18T00:18:42.802Z,20.52
2023-04-18T00:21:09.940Z,18.13
2023-04-18T00:23:37.102Z,18.60
2023-04-18T00:26:04.273Z,17.75
2023-04-18T00:28:31.365Z,19.77
2023-04-18T00:30:58.494Z,17.25
2023-04-18T00:33:25.609Z,16.40
2023-04-18T00:35:52.990Z,17.85
2023-04-18T00:38:20.173Z,18.75
2023-04-18T00:40:48.396Z,16.88
2023-04-18T00:43:16.114Z,17.77
2023-04-18T00:45:43.559Z,18.02
2023-04-18T00:48:11.172Z,17.77
2023-04-18T00:50:38.535Z,16.35
2023-04-18T00:53:05.968Z,19.23
2023-04-18T00:55:33.188Z,20.42
2023-04-18T00:58:00.380Z,15.85
2023-04-18T01:00:27.737Z,16.42
2023-04-18T01:02:56.058Z,17.50
2023-04-18T01:05:24.191Z,17.48
2023-04-18T01:07:52.083Z,17.08
2023-04-18T01:10:19.322Z,14.98
2023-04-18T01:12:46.480Z,15.15
2023-04-18T01:15:15.778Z,15.45
2023-04-18T01:17:43.471Z,17.30
2023-04-18T01:20:10.832Z,14.05
2023-04-18T01:22:37.942Z,14.77
2023-04-18T01:25:09.278Z,14.98
2023-04-18T01:27:36.375Z,14.15
2023-04-18T01:30:04.063Z,17.73
2023-04-18T01:32:31.227Z,16.38
2023-04-18T01:34:58.409Z,12.70
2023-04-18T01:37:25.637Z,12.65
2023-04-18T01:39:53.804Z,18.00
2023-04-18T01:42:20.932Z,14.25
2023-04-18T01:44:48.031Z,14.38
2023-04-18T01:47:15.191Z,14.93
2023-04-18T01:49:46.581Z,14.70
2023-04-18T01:52:14.266Z,13.60
2023-04-18T01:54:41.544Z,12.70
2023-04-18T01:57:08.666Z,12.48
2023-04-18T01:59:35.851Z,13.57
2023-04-18T02:02:03.114Z,12.77
2023-04-18T02:04:30.324Z,12.68
2023-04-18T02:06:57.432Z,12.45
2023-04-18T02:09:24.695Z,12.73
2023-04-18T02:11:51.891Z,15.10
2023-04-18T02:14:18.973Z,12.43
2023-04-18T02:16:46.142Z,15.38
2023-04-18T02:19:13.295Z,14.20
2023-04-18T02:21:44.402Z,14.32
2023-04-18T02:24:11.661Z,12.10
2023-04-18T02:26:39.012Z,13.57
2023-04-18T02:29:06.169Z,13.50
2023-04-18T02:31:33.481Z,16.50
2023-04-18T02:34:00.581Z,14.07
2023-04-18T02:36:28.082Z,14.05
2023-04-18T02:38:55.726Z,14.00
2023-04-18T02:41:22.869Z,12.85
2023-04-18T02:43:50.041Z,12.85
2023-04-18T02:46:19.147Z,14.68
2023-04-18T02:48:48.414Z,14.32
2023-04-18T02:51:16.573Z,12.85
2023-04-18T02:53:43.687Z,13.63
2023-04-18T02:56:11.679Z,15.38
2023-04-18T02:59:04.644Z,14.25
2023-04-18T03:01:57.706Z,12.73
2023-04-18T03:04:25.034Z,14.10
2023-04-18T03:07:03.894Z,12.75
2023-04-18T03:09:35.464Z,14.60
2023-04-18T03:12:08.062Z,18.67
2023-04-18T03:14:37.848Z,14.48
2023-04-18T03:17:05.659Z,16.38
2023-04-18T03:19:38.749Z,15.07
2023-04-18T03:22:11.840Z,14.60
2023-04-18T03:24:46.008Z,14.63
2023-04-18T03:27:13.716Z,12.50
2023-04-18T03:29:42.729Z,16.13
2023-04-18T03:32:09.876Z,16.42
2023-04-18T03:34:37.100Z,15.82
2023-04-18T03:37:07.051Z,17.45
2023-04-18T03:39:39.970Z,15.85
2023-04-18T03:42:07.400Z,15.20
2023-04-18T03:44:35.263Z,15.82
2023-04-18T03:47:03.875Z,15.75
2023-04-18T03:49:37.537Z,15.93
2023-04-18T03:52:04.758Z,16.83
2023-04-18T03:54:31.828Z,18.70
2023-04-18T03:56:59.514Z,16.15
2023-04-18T03:59:27.360Z,15.98
2023-04-18T04:01:55.975Z,14.18
2023-04-18T04:04:23.247Z,15.90
2023-04-18T04:06:51.527Z,16.67
2023-04-18T04:09:18.814Z,15.07
2023-04-18T04:11:46.180Z,15.20
2023-04-18T04:14:15.145Z,16.58
2023-04-18T04:16:45.379Z,16.42
2023-04-18T04:19:15.401Z,17.63
2023-04-18T04:21:51.189Z,16.58
2023-04-18T04:24:18.598Z,13.70
2023-04-18T04:26:48.644Z,18.33
2023-04-18T04:29:19.653Z,17.83
2023-04-18T04:31:48.394Z,14.75
2023-04-18T04:34:24.043Z,17.75
2023-04-18T04:36:51.598Z,16.50
2023-04-18T04:39:18.884Z,15.60
2023-04-18T04:42:03.689Z,18.02
2023-04-18T04:44:41.581Z,18.05
2023-04-18T04:47:08.973Z,15.10
2023-04-18T04:49:38.102Z,16.25
2023-04-18T04:52:05.188Z,16.45
2023-04-18T04:54:32.352Z,17.30
2023-04-18T04:56:59.646Z,17.25
2023-04-18T04:59:26.793Z,19.13
2023-04-18T05:01:54.526Z,17.63
2023-04-18T05:04:21.773Z,16.58
2023-04-18T05:06:49.123Z,18.27
2023-04-18T05:09:16.324Z,16.35
2023-04-18T05:11:43.490Z,17.92
2023-04-18T05:14:12.518Z,15.55
2023-04-18T05:16:39.891Z,15.45
2023-04-18T05:19:07.050Z,17.88
2023-04-18T05:21:34.151Z,16.38
2023-04-18T05:24:01.347Z,17.88
2023-04-18T05:26:28.484Z,21.35
2023-04-18T05:28:55.865Z,19.40
2023-04-18T05:31:23.070Z,18.33
2023-04-18T05:33:50.243Z,18.15
2023-04-18T05:36:17.351Z,19.52
2023-04-18T05:38:44.454Z,16.92
2023-04-18T05:41:11.538Z,16.67
2023-04-18T05:43:39.077Z,19.10
2023-04-18T05:46:06.411Z,17.45
2023-04-18T05:48:33.483Z,16.85
2023-04-18T05:51:00.960Z,14.88
2023-04-18T05:53:28.087Z,15.52
2023-04-18T05:55:56.567Z,16.88
2023-04-18T05:58:23.632Z,16.98
2023-04-18T06:00:50.947Z,18.92
2023-04-18T06:03:18.116Z,19.98
2023-04-18T06:05:45.517Z,17.60
2023-04-18T06:08:12.713Z,19.17
2023-04-18T06:10:39.843Z,17.30
2023-04-18T06:13:06.921Z,17.35
2023-04-18T06:15:35.049Z,16.58
2023-04-18T06:18:02.209Z,15.63
2023-04-18T06:20:29.336Z,15.15
2023-04-18T06:22:56.457Z,17.52
2023-04-18T06:25:23.607Z,18.17
2023-04-18T06:27:50.763Z,17.08
2023-04-18T06:30:21.787Z,18.55
2023-04-18T06:32:49.036Z,17.27
2023-04-18T06:35:16.699Z,15.88
2023-04-18T06:37:44.859Z,22.52
2023-04-18T06:40:12.583Z,19.92
2023-04-18T06:42:39.879Z,16.38
2023-04-18T06:45:07.297Z,18.95
2023-04-18T06:47:34.437Z,15.60
2023-04-18T06:50:01.544Z,14.73
2023-04-18T06:52:28.624Z,16.33
2023-04-18T06:54:55.670Z,18.83
2023-04-18T06:57:22.816Z,14.45
2023-04-18T06:59:49.918Z,15.27
2023-04-18T07:02:17.190Z,18.02
2023-04-18T07:04:44.867Z,15.10
2023-04-18T07:07:12.063Z,16.05
2023-04-18T07:09:39.142Z,15.82
2023-04-18T07:12:06.471Z,18.33
2023-04-18T07:14:34.310Z,14.93
2023-04-18T07:17:02.013Z,15.02
2023-04-18T07:19:29.215Z,16.67
2023-04-18T07:21:56.353Z,15.68
2023-04-18T07:24:26.599Z,14.23
2023-04-18T07:26:55.213Z,16.40
2023-04-18T07:29:22.495Z,17.67
2023-04-18T07:31:50.049Z,15.27
2023-04-18T07:34:17.799Z,14.85
2023-04-18T07:36:45.053Z,14.32
2023-04-18T07:39:12.244Z,15.43
2023-04-18T07:41:39.369Z,17.48
2023-04-18T07:44:06.488Z,14.45
2023-04-18T07:46:33.991Z,14.93
2023-04-18T07:49:02.385Z,14.93
2023-04-18T07:51:32.430Z,12.48
2023-04-18T07:53:59.752Z,13.48
2023-04-18T07:56:27.565Z,13.05
2023-04-18T07:58:54.698Z,13.75
2023-04-18T08:01:24.250Z,13.93
2023-04-18T08:03:53.172Z,12.93
2023-04-18T08:06:21.335Z,13.57
2023-04-18T08:08:48.490Z,13.70
2023-04-18T08:11:15.820Z,12.38
2023-04-18T08:13:43.024Z,14.68
2023-04-18T08:16:10.327Z,12.85
2023-04-18T08:18:37.592Z,14.73
2023-04-18T08:21:04.848Z,11.60
2023-04-18T08:23:31.930Z,16.48
2023-04-18T08:25:59.017Z,12.68
2023-04-18T08:28:26.145Z,10.80
2023-04-18T08:30:55.006Z,10.38
2023-04-18T08:33:23.534Z,11.80
2023-04-18T08:35:51.932Z,13.52
2023-04-18T08:38:19.585Z,10.85
2023-04-18T08:40:47.147Z,11.95
2023-04-18T08:43:15.717Z,11.38
2023-04-18T08:45:43.489Z,14.32
2023-04-18T08:48:14.351Z,11.63
2023-04-18T08:50:42.216Z,11.40
2023-04-18T08:53:09.512Z,11.02
2023-04-18T08:55:36.725Z,11.70
2023-04-18T08:58:06.879Z,12.13
2023-04-18T09:00:34.145Z,14.65
2023-04-18T09:03:02.810Z,12.07
2023-04-18T09:05:30.298Z,13.40
2023-04-18T09:07:57.499Z,12.57
2023-04-18T09:10:33.216Z,12.55
2023-04-18T09:13:02.934Z,11.85
2023-04-18T09:15:30.276Z,10.07
2023-04-18T09:17:58.957Z,13.13
2023-04-18T09:20:30.641Z,11.93
2023-04-18T09:22:57.797Z,12.25
2023-04-18T09:25:35.693Z,18.65
2023-04-18T09:28:03.511Z,12.50
2023-04-18T09:30:37.867Z,12.82
2023-04-18T09:33:07.423Z,15.35
2023-04-18T09:35:34.705Z,11.45
2023-04-18T09:38:01.989Z,12.35
2023-04-18T09:40:29.316Z,12.25
2023-04-18T09:42:56.557Z,11.32
2023-04-18T09:45:24.437Z,10.60
2023-04-18T09:47:52.399Z,11.73
2023-04-18T09:50:20.740Z,11.85
2023-04-18T09:52:48.444Z,10.77
2023-04-18T09:55:16.989Z,11.18
2023-04-18T09:57:45.851Z,11.38
2023-04-18T10:00:21.474Z,11.52
2023-04-18T10:02:59.156Z,13.95
2023-04-18T10:05:31.959Z,11.73
2023-04-18T10:07:59.166Z,12.63
2023-04-18T10:10:26.549Z,12.55
2023-04-18T10:12:54.999Z,13.38
2023-04-18T10:15:23.611Z,14.05
2023-04-18T10:18:04.316Z,14.80
2023-04-18T10:20:32.714Z,11.25
2023-04-18T10:23:00.463Z,13.15
2023-04-18T10:25:39.789Z,11.82
2023-04-18T10:28:07.534Z,13.40
2023-04-18T10:30:40.940Z,12.88
2023-04-18T10:33:31.850Z,12.40
2023-04-18T10:36:00.659Z,12.70
2023-04-18T10:38:28.140Z,12.05
2023-04-18T10:41:13.286Z,12.02
2023-04-18T10:43:59.231Z,13.27
2023-04-18T10:46:32.530Z,11.90
2023-04-18T10:49:15.838Z,9.90
2023-04-18T10:51:44.448Z,11.63
2023-04-18T10:54:13.471Z,10.57
2023-04-18T10:56:41.133Z,8.40
2023-04-18T10:59:09.959Z,12.52
2023-04-18T11:01:38.619Z,9.00
2023-04-18T11:04:12.879Z,10.85
2023-04-18T11:06:55.919Z,9.75
2023-04-18T11:09:23.249Z,10.15
2023-04-18T11:12:23.027Z,11.55
2023-04-18T11:14:52.007Z,9.45
2023-04-18T11:17:23.777Z,11.45
2023-04-18T11:20:01.236Z,10.90
2023-04-18T11:22:28.495Z,11.70
2023-04-18T11:25:01.755Z,11.45
2023-04-18T11:27:30.067Z,10.27
2023-04-18T11:29:57.709Z,11.98
2023-04-18T11:32:24.957Z,14.70
2023-04-18T11:34:53.432Z,12.48
2023-04-18T11:37:20.774Z,12.07
2023-04-18T11:39:48.074Z,17.05
2023-04-18T11:42:15.288Z,13.30
2023-04-18T11:44:46.055Z,15.45
2023-04-18T11:47:22.832Z,12.68
2023-04-18T11:49:57.198Z,18.70
2023-04-18T11:52:24.797Z,13.35
2023-04-18T11:54:51.976Z,12.20
2023-04-18T11:57:23.935Z,14.68
2023-04-18T11:59:51.976Z,15.77
2023-04-18T12:02:19.489Z,14.95
2023-04-18T12:04:54.149Z,14.98
2023-04-18T12:07:41.141Z,17.05
2023-04-18T12:10:24.460Z,14.27
2023-04-18T12:12:52.580Z,14.30
2023-04-18T12:15:20.200Z,13.93
2023-04-18T12:17:51.899Z,17.13
2023-04-18T12:20:19.974Z,12.82
2023-04-18T12:22:51.184Z,14.75
2023-04-18T12:25:25.167Z,15.38
2023-04-18T12:27:53.399Z,15.60
2023-04-18T12:30:24.706Z,14.20
2023-04-18T12:32:53.648Z,19.90
2023-04-18T12:35:21.356Z,14.40
2023-04-18T12:37:49.119Z,16.17
2023-04-18T12:40:16.739Z,16.67
2023-04-18T12:42:43.845Z,17.55
2023-04-18T12:45:11.429Z,15.40
2023-04-18T12:47:39.370Z,14.57
2023-04-18T12:50:09.959Z,15.07
2023-04-18T12:52:39.488Z,15.63
2023-04-18T12:55:07.179Z,14.90
2023-04-18T12:57:34.554Z,17.00
2023-04-18T13:00:01.815Z,14.25
2023-04-18T13:02:29.932Z,18.52
2023-04-18T13:04:58.364Z,17.90
2023-04-18T13:07:25.712Z,16.90
2023-04-18T13:09:52.889Z,16.55
2023-04-18T13:12:20.062Z,14.90
2023-04-18T13:14:47.141Z,17.55
2023-04-18T13:17:14.230Z,17.90
2023-04-18T13:19:41.499Z,15.45
2023-04-18T13:22:08.702Z,17.05
2023-04-18T13:24:36.974Z,18.67
2023-04-18T13:27:10.180Z,17.70
2023-04-18T13:29:41.522Z,17.13
2023-04-18T13:32:09.029Z,18.48
2023-04-18T13:34:39.165Z,17.63
2023-04-18T13:37:06.856Z,21.35
2023-04-18T13:39:34.277Z,17.98
2023-04-18T13:42:04.450Z,17.45
2023-04-18T13:44:32.118Z,17.52
2023-04-18T13:46:59.240Z,19.35
2023-04-18T13:49:26.428Z,19.83
2023-04-18T13:51:53.614Z,17.15
2023-04-18T13:54:20.897Z,17.27
2023-04-18T13:56:48.011Z,19.92
2023-04-18T13:59:15.832Z,17.20
2023-04-18T14:01:43.413Z,15.73
2023-04-18T14:04:10.721Z,16.88
2023-04-18T14:06:38.320Z,16.00
2023-04-18T14:09:06.863Z,18.80
2023-04-18T14:11:34.886Z,18.92
2023-04-18T14:14:02.416Z,17.98
2023-04-18T14:16:32.571Z,16.25
2023-04-18T14:19:00.050Z,15.75
2023-04-18T14:21:27.261Z,15.82
2023-04-18T14:23:54.365Z,18.05
2023-04-18T14:26:21.548Z,16.35
2023-04-18T14:28:48.655Z,17.48
2023-04-18T14:31:16.124Z,18.88
2023-04-18T14:33:43.539Z,17.80
2023-04-18T14:36:11.108Z,16.17
2023-04-18T14:38:38.235Z,16.48
2023-04-18T14:41:05.663Z,18.83
2023-04-18T14:43:32.848Z,17.02
2023-04-18T14:46:00.360Z,15.77
2023-04-18T14:48:28.225Z,17.02
2023-04-18T14:50:59.138Z,15.70
2023-04-18T14:53:27.014Z,16.08
2023-04-18T14:55:54.190Z,16.35
2023-04-18T14:58:21.518Z,15.82
2023-04-18T15:00:49.134Z,16.40
2023-04-18T15:03:16.856Z,14.98
2023-04-18T15:05:46.483Z,14.50
2023-04-18T15:08:14.509Z,16.85
2023-04-18T15:10:42.469Z,17.67
2023-04-18T15:13:10.926Z,16.50
2023-04-18T15:15:39.631Z,18.60
2023-04-18T15:18:08.094Z,15.13
2023-04-18T15:20:36.944Z,16.33
2023-04-18T15:23:04.156Z,18.50
2023-04-18T15:25:31.360Z,17.00
2023-04-18T15:27:58.675Z,14.88
2023-04-18T15:30:26.063Z,15.43
2023-04-18T15:32:53.940Z,16.35
2023-04-18T15:35:21.206Z,17.15
2023-04-18T15:37:49.130Z,13.23
2023-04-18T15:40:18.076Z,15.80
2023-04-18T15:42:45.895Z,15.90
2023-04-18T15:45:13.216Z,14.93
2023-04-18T15:47:41.245Z,15.02
2023-04-18T15:50:09.053Z,16.73
2023-04-18T15:52:36.667Z,15.55
2023-04-18T15:55:05.145Z,17.55
2023-04-18T15:57:32.772Z,14.20
2023-04-18T15:59:59.951Z,15.60
2023-04-18T16:02:27.538Z,15.48
2023-04-18T16:04:54.731Z,15.48
2023-04-18T16:07:21.859Z,15.10
2023-04-18T16:09:49.026Z,15.70
2023-04-18T16:12:16.222Z,14.95
2023-04-18T16:14:43.329Z,15.02
2023-04-18T16:17:10.696Z,14.27
2023-04-18T16:19:40.937Z,16.08
2023-04-18T16:22:08.207Z,17.02
2023-04-18T16:24:35.486Z,14.10
2023-04-18T16:27:02.861Z,18.42
2023-04-18T16:29:29.918Z,12.60
2023-04-18T16:31:57.019Z,15.18
2023-04-18T16:34:24.111Z,14.32
2023-04-18T16:36:51.342Z,13.98
2023-04-18T16:39:19.204Z,14.25
2023-04-18T16:41:46.507Z,13.77
2023-04-18T16:44:13.830Z,16.05
2023-04-18T16:46:41.438Z,13.48
2023-04-18T16:49:08.599Z,13.57
2023-04-18T16:51:37.141Z,13.30
2023-04-18T16:54:04.696Z,12.75
2023-04-18T16:56:31.930Z,13.45
2023-04-18T16:58:59.167Z,13.93
2023-04-18T17:01:26.377Z,13.85
2023-04-18T17:03:53.838Z,13.48
2023-04-18T17:06:22.651Z,14.73
2023-04-18T17:08:49.838Z,14.15
2023-04-18T17:11:17.056Z,13.30
2023-04-18T17:13:44.150Z,13.93
2023-04-18T17:16:11.305Z,13.85
2023-04-18T17:18:38.477Z,13.23
2023-04-18T17:21:05.627Z,14.65
2023-04-18T17:23:33.203Z,12.05
2023-04-18T17:26:00.502Z,14.73
2023-04-18T17:28:27.566Z,15.60
2023-04-18T17:30:57.192Z,14.02
2023-04-18T17:33:24.299Z,14.10
2023-04-18T17:35:51.901Z,13.73
2023-04-18T17:38:19.006Z,12.93
2023-04-18T17:40:46.080Z,13.48
2023-04-18T17:43:13.131Z,15.50
2023-04-18T17:45:40.347Z,12.80
2023-04-18T17:48:07.670Z,13.95
2023-04-18T17:50:36.953Z,14.60
2023-04-18T17:53:04.340Z,14.48
2023-04-18T17:55:31.454Z,12.65
2023-04-18T17:57:58.592Z,13.95
2023-04-18T18:00:25.838Z,13.20
2023-04-18T18:02:53.126Z,13.68
2023-04-18T18:05:20.456Z,13.23
2023-04-18T18:07:49.004Z,14.50
2023-04-18T18:10:23.534Z,12.95
2023-04-18T18:12:50.876Z,14.25
2023-04-18T18:15:18.898Z,15.38
2023-04-18T18:17:49.091Z,14.73
2023-04-18T18:20:16.342Z,14.77
2023-04-18T18:22:43.804Z,14.57
2023-04-18T18:25:11.294Z,12.57
2023-04-18T18:27:38.454Z,13.55
2023-04-18T18:30:06.017Z,15.20
2023-04-18T18:32:33.163Z,13.85
2023-04-18T18:35:00.322Z,13.30
2023-04-18T18:37:27.396Z,14.65
2023-04-18T18:39:56.141Z,15.93
2023-04-18T18:42:23.375Z,13.80
2023-04-18T18:44:50.490Z,12.95
2023-04-18T18:47:18.233Z,14.27
2023-04-18T18:49:45.399Z,15.10
2023-04-18T18:52:12.484Z,13.25
2023-04-18T18:54:39.682Z,13.85
2023-04-18T18:57:06.837Z,11.77
2023-04-18T18:59:33.951Z,14.10
2023-04-18T19:02:01.130Z,13.35
2023-04-18T19:04:28.878Z,14.55
2023-04-18T19:06:56.124Z,13.00
2023-04-18T19:09:23.478Z,15.68
2023-04-18T19:11:51.251Z,13.85
2023-04-18T19:14:18.368Z,13.82
2023-04-18T19:16:45.617Z,11.48
2023-04-18T19:19:13.109Z,14.50
2023-04-18T19:21:45.665Z,10.80
2023-04-18T19:24:13.209Z,14.35
2023-04-18T19:26:40.363Z,13.55
2023-04-18T19:29:07.771Z,10.77
2023-04-18T19:31:35.380Z,12.75
2023-04-18T19:34:02.701Z,11.63
2023-04-18T19:36:29.847Z,11.27
2023-04-18T19:38:56.980Z,11.43
2023-04-18T19:41:25.862Z,11.50
2023-04-18T19:43:53.140Z,12.05
2023-04-18T19:46:20.397Z,12.40
2023-04-18T19:48:47.609Z,12.43
2023-04-18T19:51:14.740Z,11.80
2023-04-18T19:53:41.912Z,12.60
2023-04-18T19:56:11.132Z,11.80
2023-04-18T19:58:44.573Z,13.27
2023-04-18T20:01:12.059Z,13.75
2023-04-18T20:03:39.740Z,14.13
2023-04-18T20:06:07.164Z,13.15
2023-04-18T20:08:34.936Z,13.52
2023-04-18T20:11:02.066Z,13.73
2023-04-18T20:13:29.204Z,11.60
2023-04-18T20:15:56.310Z,13.15
2023-04-18T20:18:26.446Z,12.73
2023-04-18T20:20:53.557Z,12.75
2023-04-18T20:23:20.807Z,15.05
2023-04-18T20:25:47.910Z,12.88
2023-04-18T20:28:15.024Z,13.75
2023-04-18T20:30:43.041Z,11.85
2023-04-18T20:33:10.632Z,11.90
2023-04-18T20:35:38.150Z,14.80
2023-04-18T20:38:07.146Z,10.52
2023-04-18T20:40:34.846Z,12.43
2023-04-18T20:43:06.706Z,12.27
2023-04-18T20:45:37.480Z,12.70
2023-04-18T20:48:05.268Z,12.40
2023-04-18T20:50:32.422Z,11.43
2023-04-18T20:53:01.619Z,13.20
2023-04-18T20:55:28.762Z,12.63
2023-04-18T20:57:55.901Z,11.23
2023-04-18T21:00:23.228Z,11.48
2023-04-18T21:02:50.441Z,15.77
2023-04-18T21:05:17.625Z,14.23
2023-04-18T21:07:45.867Z,11.90
2023-04-18T21:10:13.115Z,14.98
2023-04-18T21:12:40.335Z,13.45
2023-04-18T21:15:07.794Z,12.43
2023-04-18T21:17:34.914Z,12.82
2023-04-18T21:20:02.045Z,10.52
2023-04-18T21:22:29.189Z,10.98
2023-04-18T21:24:56.262Z,10.75
2023-04-18T21:27:23.360Z,10.98
2023-04-18T21:29:50.501Z,13.18
2023-04-18T21:32:17.640Z,10.80
2023-04-18T21:34:44.766Z,13.25
2023-04-18T21:37:11.844Z,12.57
2023-04-18T21:39:38.941Z,11.50
2023-04-18T21:42:06.134Z,9.15
2023-04-18T21:44:33.340Z,10.88
2023-04-18T21:47:00.479Z,11.18
2023-04-18T21:49:27.708Z,11.73
2023-04-18T21:51:54.965Z,11.02
2023-04-18T21:54:22.101Z,10.80
2023-04-18T21:56:49.194Z,11.05
2023-04-18T21:59:16.362Z,13.15
2023-04-18T22:01:43.869Z,9.70
2023-04-18T22:04:12.268Z,11.50
2023-04-18T22:06:39.484Z,10.75
2023-04-18T22:09:06.614Z,12.15
2023-04-18T22:11:33.842Z,11.35
2023-04-18T22:14:01.307Z,11.48
2023-04-18T22:16:28.846Z,11.73
2023-04-18T22:18:56.053Z,11.13
2023-04-18T22:21:23.186Z,11.32
2023-04-18T22:23:50.312Z,11.15
2023-04-18T22:26:17.438Z,11.27
2023-04-18T22:28:44.548Z,11.90
2023-04-18T22:31:11.653Z,10.77
2023-04-18T22:33:38.732Z,12.88
2023-04-18T22:36:06.018Z,10.52
2023-04-18T22:38:33.234Z,14.10
2023-04-18T22:41:00.447Z,14.02
2023-04-18T22:43:28.201Z,11.20
2023-04-18T22:45:55.314Z,13.25
2023-04-18T22:48:22.376Z,11.50
2023-04-18T22:50:50.045Z,12.15
2023-04-18T22:53:17.540Z,11.30
2023-04-18T22:55:45.953Z,11.43
2023-04-18T22:58:13.621Z,13.38
2023-04-18T23:00:40.861Z,12.93
2023-04-18T23:03:08.153Z,11.85
2023-04-18T23:05:35.509Z,12.45
2023-04-18T23:08:02.610Z,11.15
2023-04-18T23:10:29.740Z,13.30
2023-04-18T23:12:56.945Z,13.52
2023-04-18T23:15:24.454Z,12.57
2023-04-18T23:17:54.720Z,14.40
2023-04-18T23:20:23.730Z,11.95
2023-04-18T23:22:51.632Z,13.40
2023-04-18T23:25:19.681Z,11.93
2023-04-18T23:27:47.058Z,11.75
2023-04-18T23:30:14.378Z,13.30
2023-04-18T23:32:41.527Z,13.85
2023-04-18T23:35:08.929Z,11.10
2023-04-18T23:37:36.164Z,13.77
2023-04-18T23:40:06.476Z,10.52
2023-04-18T23:42:36.807Z,12.65
2023-04-18T23:45:05.522Z,15.32
2023-04-18T23:47:32.610Z,12.82
2023-04-18T23:49:59.699Z,13.70
2023-04-18T23:52:26.745Z,13.05
2023-04-18T23:54:53.886Z,12.27
2023-04-18T23:57:21.012Z,16.13
2023-04-18T23:59:48.092Z,13.63
